sensor_id;sensor_type;location;lat;lon;timestamp;P1;durP1;ratioP1;P2;durP2;ratioP2
76656;SDS011;65576;47.714;9.414;2023-11-19T00:00:59;1.13;;;0.90;;
76656;SDS011;65576;47.714;9.414;2023-11-19T00:03:25;0.85;;;0.35;;
76656;SDS011;65576;47.714;9.414;2023-11-19T00:05:50;1.48;;;1.00;;
76656;SDS011;65576;47.714;9.414;2023-11-19T00:08:15;0.50;;;0.45;;
76656;SDS011;65576;47.714;9.414;2023-11-19T00:10:41;0.50;;;0.50;;
76656;SDS011;65576;47.714;9.414;2023-11-19T00:13:06;0.60;;;0.60;;
76656;SDS011;65576;47.714;9.414;2023-11-19T00:15:32;0.68;;;0.68;;
76656;SDS011;65576;47.714;9.414;2023-11-19T00:17:57;1.48;;;0.77;;
76656;SDS011;65576;47.714;9.414;2023-11-19T00:20:22;1.00;;;0.68;;
76656;SDS011;65576;47.714;9.414;2023-11-19T00:22:48;0.90;;;0.65;;
76656;SDS011;65576;47.714;9.414;2023-11-19T00:25:16;0.70;;;0.65;;
76656;SDS011;65576;47.714;9.414;2023-11-19T00:27:42;0.57;;;0.57;;
76656;SDS011;65576;47.714;9.414;2023-11-19T00:30:09;0.57;;;0.57;;
76656;SDS011;65576;47.714;9.414;2023-11-19T00:32:35;1.10;;;0.95;;
76656;SDS011;65576;47.714;9.414;2023-11-19T00:35:03;0.98;;;0.90;;
76656;SDS011;65576;47.714;9.414;2023-11-19T00:37:29;0.70;;;0.70;;
76656;SDS011;65576;47.714;9.414;2023-11-19T00:39:54;0.50;;;0.50;;
76656;SDS011;65576;47.714;9.414;2023-11-19T00:42:21;0.40;;;0.40;;
76656;SDS011;65576;47.714;9.414;2023-11-19T00:44:47;1.23;;;1.13;;
76656;SDS011;65576;47.714;9.414;2023-11-19T00:47:12;0.85;;;0.70;;
76656;SDS011;65576;47.714;9.414;2023-11-19T00:49:37;0.93;;;0.90;;
76656;SDS011;65576;47.714;9.414;2023-11-19T00:52:03;1.45;;;0.88;;
76656;SDS011;65576;47.714;9.414;2023-11-19T00:54:28;1.00;;;0.80;;
76656;SDS011;65576;47.714;9.414;2023-11-19T00:56:54;0.45;;;0.45;;
76656;SDS011;65576;47.714;9.414;2023-11-19T00:59:20;2.33;;;0.80;;
76656;SDS011;65576;47.714;9.414;2023-11-19T01:01:45;0.80;;;0.80;;
76656;SDS011;65576;47.714;9.414;2023-11-19T01:04:13;0.93;;;0.82;;
76656;SDS011;65576;47.714;9.414;2023-11-19T01:06:38;1.70;;;1.00;;
76656;SDS011;65576;47.714;9.414;2023-11-19T01:09:03;2.17;;;0.98;;
76656;SDS011;65576;47.714;9.414;2023-11-19T01:11:29;0.60;;;0.50;;
76656;SDS011;65576;47.714;9.414;2023-11-19T01:13:54;0.75;;;0.60;;
76656;SDS011;65576;47.714;9.414;2023-11-19T01:16:19;0.57;;;0.57;;
76656;SDS011;65576;47.714;9.414;2023-11-19T01:18:48;0.38;;;0.38;;
76656;SDS011;65576;47.714;9.414;2023-11-19T01:21:14;1.60;;;1.00;;
76656;SDS011;65576;47.714;9.414;2023-11-19T01:23:39;0.90;;;0.68;;
76656;SDS011;65576;47.714;9.414;2023-11-19T01:26:05;3.40;;;1.00;;
76656;SDS011;65576;47.714;9.414;2023-11-19T01:28:30;3.08;;;0.80;;
76656;SDS011;65576;47.714;9.414;2023-11-19T01:30:56;0.70;;;0.70;;
76656;SDS011;65576;47.714;9.414;2023-11-19T01:33:21;2.38;;;0.60;;
76656;SDS011;65576;47.714;9.414;2023-11-19T01:35:46;2.22;;;1.13;;
76656;SDS011;65576;47.714;9.414;2023-11-19T01:38:12;0.70;;;0.70;;
76656;SDS011;65576;47.714;9.414;2023-11-19T01:40:37;0.88;;;0.68;;
76656;SDS011;65576;47.714;9.414;2023-11-19T01:43:03;0.35;;;0.32;;
76656;SDS011;65576;47.714;9.414;2023-11-19T01:45:29;0.52;;;0.52;;
76656;SDS011;65576;47.714;9.414;2023-11-19T01:47:55;1.35;;;0.65;;
76656;SDS011;65576;47.714;9.414;2023-11-19T01:50:24;0.60;;;0.60;;
76656;SDS011;65576;47.714;9.414;2023-11-19T01:52:52;1.42;;;0.95;;
76656;SDS011;65576;47.714;9.414;2023-11-19T01:55:17;1.10;;;1.00;;
76656;SDS011;65576;47.714;9.414;2023-11-19T01:57:43;1.85;;;1.25;;
76656;SDS011;65576;47.714;9.414;2023-11-19T02:00:09;1.15;;;1.00;;
76656;SDS011;65576;47.714;9.414;2023-11-19T02:02:38;0.65;;;0.65;;
76656;SDS011;65576;47.714;9.414;2023-11-19T02:05:05;1.52;;;1.30;;
76656;SDS011;65576;47.714;9.414;2023-11-19T02:07:31;0.60;;;0.60;;
76656;SDS011;65576;47.714;9.414;2023-11-19T02:09:56;0.95;;;0.63;;
76656;SDS011;65576;47.714;9.414;2023-11-19T02:12:24;1.55;;;1.13;;
76656;SDS011;65576;47.714;9.414;2023-11-19T02:14:49;0.60;;;0.50;;
76656;SDS011;65576;47.714;9.414;2023-11-19T02:17:27;0.52;;;0.52;;
76656;SDS011;65576;47.714;9.414;2023-11-19T02:19:53;0.85;;;0.77;;
76656;SDS011;65576;47.714;9.414;2023-11-19T02:22:19;4.25;;;0.98;;
76656;SDS011;65576;47.714;9.414;2023-11-19T02:24:45;0.98;;;0.95;;
76656;SDS011;65576;47.714;9.414;2023-11-19T02:27:15;0.85;;;0.68;;
76656;SDS011;65576;47.714;9.414;2023-11-19T02:29:45;1.48;;;1.00;;
76656;SDS011;65576;47.714;9.414;2023-11-19T02:32:11;1.30;;;1.02;;
76656;SDS011;65576;47.714;9.414;2023-11-19T02:34:38;1.40;;;1.30;;
76656;SDS011;65576;47.714;9.414;2023-11-19T02:37:03;0.70;;;0.70;;
76656;SDS011;65576;47.714;9.414;2023-11-19T02:39:30;1.15;;;1.05;;
76656;SDS011;65576;47.714;9.414;2023-11-19T02:41:56;1.38;;;0.88;;
76656;SDS011;65576;47.714;9.414;2023-11-19T02:44:21;0.52;;;0.52;;
76656;SDS011;65576;47.714;9.414;2023-11-19T02:46:47;0.80;;;0.80;;
76656;SDS011;65576;47.714;9.414;2023-11-19T02:49:13;0.82;;;0.82;;
76656;SDS011;65576;47.714;9.414;2023-11-19T02:51:39;0.55;;;0.55;;
76656;SDS011;65576;47.714;9.414;2023-11-19T02:54:04;0.47;;;0.47;;
76656;SDS011;65576;47.714;9.414;2023-11-19T02:56:29;2.72;;;1.13;;
76656;SDS011;65576;47.714;9.414;2023-11-19T02:58:59;0.95;;;0.90;;
76656;SDS011;65576;47.714;9.414;2023-11-19T03:01:25;4.68;;;0.93;;
76656;SDS011;65576;47.714;9.414;2023-11-19T03:03:58;1.58;;;0.98;;
76656;SDS011;65576;47.714;9.414;2023-11-19T03:06:26;1.67;;;1.23;;
76656;SDS011;65576;47.714;9.414;2023-11-19T03:08:52;1.10;;;1.00;;
76656;SDS011;65576;47.714;9.414;2023-11-19T03:11:17;1.48;;;1.25;;
76656;SDS011;65576;47.714;9.414;2023-11-19T03:13:43;1.45;;;1.23;;
76656;SDS011;65576;47.714;9.414;2023-11-19T03:16:08;1.65;;;1.38;;
76656;SDS011;65576;47.714;9.414;2023-11-19T03:18:33;1.27;;;1.17;;
76656;SDS011;65576;47.714;9.414;2023-11-19T03:20:59;2.95;;;0.98;;
76656;SDS011;65576;47.714;9.414;2023-11-19T03:23:25;1.25;;;1.15;;
76656;SDS011;65576;47.714;9.414;2023-11-19T03:25:52;2.00;;;1.65;;
76656;SDS011;65576;47.714;9.414;2023-11-19T03:28:18;2.25;;;1.20;;
76656;SDS011;65576;47.714;9.414;2023-11-19T03:30:43;1.08;;;1.02;;
76656;SDS011;65576;47.714;9.414;2023-11-19T03:33:08;1.33;;;1.23;;
76656;SDS011;65576;47.714;9.414;2023-11-19T03:35:34;1.67;;;1.48;;
76656;SDS011;65576;47.714;9.414;2023-11-19T03:37:59;1.52;;;1.17;;
76656;SDS011;65576;47.714;9.414;2023-11-19T03:40:24;1.42;;;1.33;;
76656;SDS011;65576;47.714;9.414;2023-11-19T03:42:50;1.00;;;0.90;;
76656;SDS011;65576;47.714;9.414;2023-11-19T03:45:15;1.02;;;1.02;;
76656;SDS011;65576;47.714;9.414;2023-11-19T03:47:41;2.15;;;1.58;;
76656;SDS011;65576;47.714;9.414;2023-11-19T03:50:06;3.22;;;1.80;;
76656;SDS011;65576;47.714;9.414;2023-11-19T03:52:33;1.92;;;1.13;;
76656;SDS011;65576;47.714;9.414;2023-11-19T03:54:58;3.13;;;1.40;;
76656;SDS011;65576;47.714;9.414;2023-11-19T03:57:24;1.20;;;1.08;;
76656;SDS011;65576;47.714;9.414;2023-11-19T03:59:49;1.48;;;1.38;;
76656;SDS011;65576;47.714;9.414;2023-11-19T04:02:15;2.28;;;1.40;;
76656;SDS011;65576;47.714;9.414;2023-11-19T04:04:40;1.13;;;1.02;;
76656;SDS011;65576;47.714;9.414;2023-11-19T04:07:06;0.98;;;0.93;;
76656;SDS011;65576;47.714;9.414;2023-11-19T04:09:31;1.30;;;1.20;;
76656;SDS011;65576;47.714;9.414;2023-11-19T04:11:59;1.02;;;0.82;;
76656;SDS011;65576;47.714;9.414;2023-11-19T04:14:25;1.38;;;1.27;;
76656;SDS011;65576;47.714;9.414;2023-11-19T04:16:51;1.15;;;1.05;;
76656;SDS011;65576;47.714;9.414;2023-11-19T04:19:16;2.70;;;1.52;;
76656;SDS011;65576;47.714;9.414;2023-11-19T04:21:42;1.63;;;1.13;;
76656;SDS011;65576;47.714;9.414;2023-11-19T04:24:08;4.75;;;1.20;;
76656;SDS011;65576;47.714;9.414;2023-11-19T04:26:34;1.02;;;0.93;;
76656;SDS011;65576;47.714;9.414;2023-11-19T04:28:59;1.33;;;1.23;;
76656;SDS011;65576;47.714;9.414;2023-11-19T04:31:28;1.55;;;1.45;;
76656;SDS011;65576;47.714;9.414;2023-11-19T04:36:21;1.40;;;1.10;;
76656;SDS011;65576;47.714;9.414;2023-11-19T04:38:49;1.67;;;1.10;;
76656;SDS011;65576;47.714;9.414;2023-11-19T04:41:14;4.70;;;1.45;;
76656;SDS011;65576;47.714;9.414;2023-11-19T04:43:39;1.52;;;1.42;;
76656;SDS011;65576;47.714;9.414;2023-11-19T04:46:05;1.95;;;1.33;;
76656;SDS011;65576;47.714;9.414;2023-11-19T04:48:30;0.68;;;0.68;;
76656;SDS011;65576;47.714;9.414;2023-11-19T04:50:56;0.80;;;0.80;;
76656;SDS011;65576;47.714;9.414;2023-11-19T04:53:21;1.50;;;1.40;;
76656;SDS011;65576;47.714;9.414;2023-11-19T04:55:46;1.10;;;0.93;;
76656;SDS011;65576;47.714;9.414;2023-11-19T04:58:12;3.13;;;1.38;;
76656;SDS011;65576;47.714;9.414;2023-11-19T05:00:37;1.50;;;1.08;;
76656;SDS011;65576;47.714;9.414;2023-11-19T05:03:03;1.92;;;1.35;;
76656;SDS011;65576;47.714;9.414;2023-11-19T05:05:28;1.58;;;1.33;;
76656;SDS011;65576;47.714;9.414;2023-11-19T05:07:54;1.45;;;1.17;;
76656;SDS011;65576;47.714;9.414;2023-11-19T05:10:20;0.98;;;0.85;;
76656;SDS011;65576;47.714;9.414;2023-11-19T05:12:45;1.40;;;1.30;;
76656;SDS011;65576;47.714;9.414;2023-11-19T05:15:10;2.20;;;1.15;;
76656;SDS011;65576;47.714;9.414;2023-11-19T05:17:36;1.90;;;1.33;;
76656;SDS011;65576;47.714;9.414;2023-11-19T05:20:02;1.08;;;0.80;;
76656;SDS011;65576;47.714;9.414;2023-11-19T05:22:27;1.73;;;1.38;;
76656;SDS011;65576;47.714;9.414;2023-11-19T05:24:53;1.23;;;1.13;;
76656;SDS011;65576;47.714;9.414;2023-11-19T05:27:18;1.30;;;1.20;;
76656;SDS011;65576;47.714;9.414;2023-11-19T05:29:43;1.63;;;1.35;;
76656;SDS011;65576;47.714;9.414;2023-11-19T05:32:09;1.40;;;1.15;;
76656;SDS011;65576;47.714;9.414;2023-11-19T05:34:35;1.48;;;0.95;;
76656;SDS011;65576;47.714;9.414;2023-11-19T05:37:00;1.13;;;1.02;;
76656;SDS011;65576;47.714;9.414;2023-11-19T05:39:25;1.67;;;1.38;;
76656;SDS011;65576;47.714;9.414;2023-11-19T05:41:51;1.25;;;1.15;;
76656;SDS011;65576;47.714;9.414;2023-11-19T05:44:16;1.38;;;1.15;;
76656;SDS011;65576;47.714;9.414;2023-11-19T05:46:42;0.93;;;0.85;;
76656;SDS011;65576;47.714;9.414;2023-11-19T05:49:11;1.42;;;1.10;;
76656;SDS011;65576;47.714;9.414;2023-11-19T05:51:38;1.53;;;1.10;;
76656;SDS011;65576;47.714;9.414;2023-11-19T05:54:05;1.02;;;1.02;;
76656;SDS011;65576;47.714;9.414;2023-11-19T05:56:34;1.87;;;1.20;;
76656;SDS011;65576;47.714;9.414;2023-11-19T05:59:00;1.05;;;0.90;;
76656;SDS011;65576;47.714;9.414;2023-11-19T06:01:28;0.90;;;0.90;;
76656;SDS011;65576;47.714;9.414;2023-11-19T06:03:54;0.77;;;0.70;;
76656;SDS011;65576;47.714;9.414;2023-11-19T06:06:19;1.00;;;0.90;;
76656;SDS011;65576;47.714;9.414;2023-11-19T06:08:45;1.45;;;1.35;;
76656;SDS011;65576;47.714;9.414;2023-11-19T06:11:10;1.67;;;1.10;;
76656;SDS011;65576;47.714;9.414;2023-11-19T06:13:43;2.30;;;1.77;;
76656;SDS011;65576;47.714;9.414;2023-11-19T06:16:08;4.88;;;2.53;;
76656;SDS011;65576;47.714;9.414;2023-11-19T06:18:34;3.35;;;2.15;;
76656;SDS011;65576;47.714;9.414;2023-11-19T06:20:59;2.40;;;2.20;;
76656;SDS011;65576;47.714;9.414;2023-11-19T06:23:24;3.80;;;2.38;;
76656;SDS011;65576;47.714;9.414;2023-11-19T06:25:49;3.53;;;2.47;;
76656;SDS011;65576;47.714;9.414;2023-11-19T06:28:15;2.92;;;1.75;;
76656;SDS011;65576;47.714;9.414;2023-11-19T06:30:40;3.78;;;1.60;;
76656;SDS011;65576;47.714;9.414;2023-11-19T06:33:06;5.55;;;1.25;;
76656;SDS011;65576;47.714;9.414;2023-11-19T06:35:32;1.80;;;0.85;;
76656;SDS011;65576;47.714;9.414;2023-11-19T06:38:01;0.73;;;0.73;;
76656;SDS011;65576;47.714;9.414;2023-11-19T06:40:29;0.63;;;0.63;;
76656;SDS011;65576;47.714;9.414;2023-11-19T06:42:54;1.08;;;0.98;;
76656;SDS011;65576;47.714;9.414;2023-11-19T06:45:20;1.02;;;0.80;;
76656;SDS011;65576;47.714;9.414;2023-11-19T06:47:45;0.75;;;0.70;;
76656;SDS011;65576;47.714;9.414;2023-11-19T06:50:10;0.50;;;0.50;;
76656;SDS011;65576;47.714;9.414;2023-11-19T06:52:37;1.08;;;0.73;;
76656;SDS011;65576;47.714;9.414;2023-11-19T06:55:02;0.70;;;0.70;;
76656;SDS011;65576;47.714;9.414;2023-11-19T06:57:28;0.60;;;0.60;;
76656;SDS011;65576;47.714;9.414;2023-11-19T06:59:57;0.35;;;0.35;;
76656;SDS011;65576;47.714;9.414;2023-11-19T07:02:22;0.68;;;0.68;;
76656;SDS011;65576;47.714;9.414;2023-11-19T07:04:48;1.00;;;0.65;;
76656;SDS011;65576;47.714;9.414;2023-11-19T07:07:13;1.17;;;1.08;;
76656;SDS011;65576;47.714;9.414;2023-11-19T07:09:40;0.70;;;0.70;;
76656;SDS011;65576;47.714;9.414;2023-11-19T07:12:05;0.55;;;0.50;;
76656;SDS011;65576;47.714;9.414;2023-11-19T07:14:31;0.40;;;0.40;;
76656;SDS011;65576;47.714;9.414;2023-11-19T07:16:57;0.60;;;0.55;;
76656;SDS011;65576;47.714;9.414;2023-11-19T07:19:22;0.70;;;0.70;;
76656;SDS011;65576;47.714;9.414;2023-11-19T07:21:47;0.90;;;0.80;;
76656;SDS011;65576;47.714;9.414;2023-11-19T07:24:13;0.77;;;0.65;;
76656;SDS011;65576;47.714;9.414;2023-11-19T07:26:45;0.50;;;0.50;;
76656;SDS011;65576;47.714;9.414;2023-11-19T07:29:12;0.57;;;0.50;;
76656;SDS011;65576;47.714;9.414;2023-11-19T07:31:37;1.33;;;0.80;;
76656;SDS011;65576;47.714;9.414;2023-11-19T07:34:03;0.50;;;0.43;;
76656;SDS011;65576;47.714;9.414;2023-11-19T07:36:30;0.50;;;0.50;;
76656;SDS011;65576;47.714;9.414;2023-11-19T07:38:55;0.50;;;0.50;;
76656;SDS011;65576;47.714;9.414;2023-11-19T07:41:22;1.35;;;0.77;;
76656;SDS011;65576;47.714;9.414;2023-11-19T07:43:48;1.35;;;0.43;;
76656;SDS011;65576;47.714;9.414;2023-11-19T07:46:14;0.45;;;0.45;;
76656;SDS011;65576;47.714;9.414;2023-11-19T07:48:39;0.88;;;0.82;;
76656;SDS011;65576;47.714;9.414;2023-11-19T07:51:05;2.45;;;0.47;;
76656;SDS011;65576;47.714;9.414;2023-11-19T07:53:31;0.73;;;0.50;;
76656;SDS011;65576;47.714;9.414;2023-11-19T07:55:57;0.50;;;0.50;;
76656;SDS011;65576;47.714;9.414;2023-11-19T07:58:24;0.55;;;0.55;;
76656;SDS011;65576;47.714;9.414;2023-11-19T08:00:50;0.63;;;0.63;;
76656;SDS011;65576;47.714;9.414;2023-11-19T08:03:15;0.75;;;0.68;;
76656;SDS011;65576;47.714;9.414;2023-11-19T08:05:40;0.60;;;0.60;;
76656;SDS011;65576;47.714;9.414;2023-11-19T08:08:06;0.50;;;0.40;;
76656;SDS011;65576;47.714;9.414;2023-11-19T08:10:32;0.80;;;0.60;;
76656;SDS011;65576;47.714;9.414;2023-11-19T08:12:58;1.10;;;0.80;;
76656;SDS011;65576;47.714;9.414;2023-11-19T08:15:23;1.23;;;0.93;;
76656;SDS011;65576;47.714;9.414;2023-11-19T08:17:49;0.88;;;0.88;;
76656;SDS011;65576;47.714;9.414;2023-11-19T08:20:14;0.70;;;0.70;;
76656;SDS011;65576;47.714;9.414;2023-11-19T08:22:39;1.08;;;0.90;;
76656;SDS011;65576;47.714;9.414;2023-11-19T08:25:05;0.65;;;0.65;;
76656;SDS011;65576;47.714;9.414;2023-11-19T08:27:31;1.20;;;0.85;;
76656;SDS011;65576;47.714;9.414;2023-11-19T08:29:56;1.35;;;0.70;;
76656;SDS011;65576;47.714;9.414;2023-11-19T08:32:22;1.70;;;0.60;;
76656;SDS011;65576;47.714;9.414;2023-11-19T08:34:48;1.55;;;1.02;;
76656;SDS011;65576;47.714;9.414;2023-11-19T08:37:13;0.52;;;0.52;;
76656;SDS011;65576;47.714;9.414;2023-11-19T08:39:39;0.30;;;0.30;;
76656;SDS011;65576;47.714;9.414;2023-11-19T08:42:04;0.73;;;0.40;;
76656;SDS011;65576;47.714;9.414;2023-11-19T08:44:30;0.60;;;0.60;;
76656;SDS011;65576;47.714;9.414;2023-11-19T08:46:55;0.50;;;0.50;;
76656;SDS011;65576;47.714;9.414;2023-11-19T08:49:21;0.80;;;0.80;;
76656;SDS011;65576;47.714;9.414;2023-11-19T08:51:46;0.85;;;0.73;;
76656;SDS011;65576;47.714;9.414;2023-11-19T08:54:11;0.57;;;0.57;;
76656;SDS011;65576;47.714;9.414;2023-11-19T08:56:38;1.25;;;1.05;;
76656;SDS011;65576;47.714;9.414;2023-11-19T08:59:04;0.85;;;0.85;;
76656;SDS011;65576;47.714;9.414;2023-11-19T09:01:29;0.73;;;0.70;;
76656;SDS011;65576;47.714;9.414;2023-11-19T09:03:55;1.13;;;0.98;;
76656;SDS011;65576;47.714;9.414;2023-11-19T09:06:20;0.75;;;0.75;;
76656;SDS011;65576;47.714;9.414;2023-11-19T09:08:46;1.27;;;0.90;;
76656;SDS011;65576;47.714;9.414;2023-11-19T09:11:11;0.60;;;0.60;;
76656;SDS011;65576;47.714;9.414;2023-11-19T09:13:37;0.90;;;0.80;;
76656;SDS011;65576;47.714;9.414;2023-11-19T09:16:02;0.95;;;0.65;;
76656;SDS011;65576;47.714;9.414;2023-11-19T09:18:28;0.93;;;0.50;;
76656;SDS011;65576;47.714;9.414;2023-11-19T09:20:54;0.77;;;0.68;;
76656;SDS011;65576;47.714;9.414;2023-11-19T09:23:19;0.52;;;0.52;;
76656;SDS011;65576;47.714;9.414;2023-11-19T09:25:45;1.08;;;0.77;;
76656;SDS011;65576;47.714;9.414;2023-11-19T09:28:10;0.30;;;0.20;;
76656;SDS011;65576;47.714;9.414;2023-11-19T09:30:35;0.88;;;0.68;;
76656;SDS011;65576;47.714;9.414;2023-11-19T09:33:01;0.50;;;0.40;;
76656;SDS011;65576;47.714;9.414;2023-11-19T09:35:26;1.23;;;0.77;;
76656;SDS011;65576;47.714;9.414;2023-11-19T09:37:52;0.95;;;0.60;;
76656;SDS011;65576;47.714;9.414;2023-11-19T09:40:17;0.70;;;0.70;;
76656;SDS011;65576;47.714;9.414;2023-11-19T09:42:43;0.77;;;0.77;;
76656;SDS011;65576;47.714;9.414;2023-11-19T09:45:13;0.30;;;0.30;;
76656;SDS011;65576;47.714;9.414;2023-11-19T09:47:40;0.30;;;0.30;;
76656;SDS011;65576;47.714;9.414;2023-11-19T09:50:08;0.50;;;0.50;;
76656;SDS011;65576;47.714;9.414;2023-11-19T09:52:34;0.30;;;0.30;;
76656;SDS011;65576;47.714;9.414;2023-11-19T09:54:59;0.52;;;0.52;;
76656;SDS011;65576;47.714;9.414;2023-11-19T09:57:24;0.60;;;0.40;;
76656;SDS011;65576;47.714;9.414;2023-11-19T09:59:50;0.20;;;0.20;;
76656;SDS011;65576;47.714;9.414;2023-11-19T10:02:17;0.85;;;0.55;;
76656;SDS011;65576;47.714;9.414;2023-11-19T10:04:42;2.47;;;0.30;;
76656;SDS011;65576;47.714;9.414;2023-11-19T10:07:09;0.70;;;0.63;;
76656;SDS011;65576;47.714;9.414;2023-11-19T10:09:34;0.50;;;0.50;;
76656;SDS011;65576;47.714;9.414;2023-11-19T10:12:00;1.58;;;0.60;;
76656;SDS011;65576;47.714;9.414;2023-11-19T10:14:26;0.55;;;0.52;;
76656;SDS011;65576;47.714;9.414;2023-11-19T10:16:54;0.45;;;0.40;;
76656;SDS011;65576;47.714;9.414;2023-11-19T10:19:20;0.30;;;0.30;;
76656;SDS011;65576;47.714;9.414;2023-11-19T10:21:46;0.20;;;0.20;;
76656;SDS011;65576;47.714;9.414;2023-11-19T10:24:11;0.90;;;0.52;;
76656;SDS011;65576;47.714;9.414;2023-11-19T10:26:36;0.20;;;0.20;;
76656;SDS011;65576;47.714;9.414;2023-11-19T10:29:02;0.60;;;0.57;;
76656;SDS011;65576;47.714;9.414;2023-11-19T10:31:27;0.40;;;0.40;;
76656;SDS011;65576;47.714;9.414;2023-11-19T10:33:52;0.25;;;0.25;;
76656;SDS011;65576;47.714;9.414;2023-11-19T10:36:18;1.08;;;0.50;;
76656;SDS011;65576;47.714;9.414;2023-11-19T10:38:54;0.20;;;0.20;;
76656;SDS011;65576;47.714;9.414;2023-11-19T10:41:27;0.50;;;0.35;;
76656;SDS011;65576;47.714;9.414;2023-11-19T10:43:53;0.70;;;0.70;;
76656;SDS011;65576;47.714;9.414;2023-11-19T10:46:18;2.28;;;0.70;;
76656;SDS011;65576;47.714;9.414;2023-11-19T10:48:47;0.70;;;0.35;;
76656;SDS011;65576;47.714;9.414;2023-11-19T10:51:13;1.05;;;0.73;;
76656;SDS011;65576;47.714;9.414;2023-11-19T10:53:39;0.95;;;0.65;;
76656;SDS011;65576;47.714;9.414;2023-11-19T10:56:06;0.38;;;0.38;;
76656;SDS011;65576;47.714;9.414;2023-11-19T10:58:35;1.15;;;0.55;;
76656;SDS011;65576;47.714;9.414;2023-11-19T11:01:03;0.47;;;0.47;;
76656;SDS011;65576;47.714;9.414;2023-11-19T11:03:35;0.77;;;0.47;;
76656;SDS011;65576;47.714;9.414;2023-11-19T11:06:04;0.55;;;0.50;;
76656;SDS011;65576;47.714;9.414;2023-11-19T11:08:30;0.73;;;0.63;;
76656;SDS011;65576;47.714;9.414;2023-11-19T11:10:56;0.55;;;0.55;;
76656;SDS011;65576;47.714;9.414;2023-11-19T11:13:25;0.73;;;0.60;;
76656;SDS011;65576;47.714;9.414;2023-11-19T11:15:52;0.82;;;0.75;;
76656;SDS011;65576;47.714;9.414;2023-11-19T11:18:19;0.43;;;0.40;;
76656;SDS011;65576;47.714;9.414;2023-11-19T11:20:45;0.73;;;0.50;;
76656;SDS011;65576;47.714;9.414;2023-11-19T11:28:40;1.13;;;0.70;;
76656;SDS011;65576;47.714;9.414;2023-11-19T11:31:09;1.05;;;0.45;;
76656;SDS011;65576;47.714;9.414;2023-11-19T11:36:48;0.55;;;0.55;;
76656;SDS011;65576;47.714;9.414;2023-11-19T11:41:45;0.60;;;0.60;;
76656;SDS011;65576;47.714;9.414;2023-11-19T11:44:11;0.43;;;0.43;;
76656;SDS011;65576;47.714;9.414;2023-11-19T11:49:08;1.45;;;1.15;;
76656;SDS011;65576;47.714;9.414;2023-11-19T11:54:30;0.68;;;0.65;;
76656;SDS011;65576;47.714;9.414;2023-11-19T11:57:11;1.65;;;1.17;;
76656;SDS011;65576;47.714;9.414;2023-11-19T12:02:09;0.30;;;0.30;;
76656;SDS011;65576;47.714;9.414;2023-11-19T12:04:39;0.30;;;0.20;;
76656;SDS011;65576;47.714;9.414;2023-11-19T12:07:09;0.30;;;0.30;;
76656;SDS011;65576;47.714;9.414;2023-11-19T12:09:39;0.50;;;0.38;;
76656;SDS011;65576;47.714;9.414;2023-11-19T12:12:22;0.30;;;0.30;;
76656;SDS011;65576;47.714;9.414;2023-11-19T12:15:02;0.20;;;0.20;;
76656;SDS011;65576;47.714;9.414;2023-11-19T12:18:09;0.63;;;0.63;;
76656;SDS011;65576;47.714;9.414;2023-11-19T12:20:28;0.93;;;0.47;;
76656;SDS011;65576;47.714;9.414;2023-11-19T12:22:58;0.43;;;0.38;;
76656;SDS011;65576;47.714;9.414;2023-11-19T12:25:30;0.55;;;0.30;;
76656;SDS011;65576;47.714;9.414;2023-11-19T12:27:59;0.35;;;0.35;;
76656;SDS011;65576;47.714;9.414;2023-11-19T12:30:25;0.38;;;0.38;;
76656;SDS011;65576;47.714;9.414;2023-11-19T12:32:51;0.40;;;0.40;;
76656;SDS011;65576;47.714;9.414;2023-11-19T12:35:18;1.05;;;0.22;;
76656;SDS011;65576;47.714;9.414;2023-11-19T12:37:45;0.30;;;0.30;;
76656;SDS011;65576;47.714;9.414;2023-11-19T12:42:46;0.40;;;0.40;;
76656;SDS011;65576;47.714;9.414;2023-11-19T12:45:12;0.35;;;0.35;;
76656;SDS011;65576;47.714;9.414;2023-11-19T12:47:39;0.28;;;0.28;;
76656;SDS011;65576;47.714;9.414;2023-11-19T12:50:05;0.65;;;0.50;;
76656;SDS011;65576;47.714;9.414;2023-11-19T12:52:31;1.65;;;0.63;;
76656;SDS011;65576;47.714;9.414;2023-11-19T12:54:57;0.28;;;0.28;;
76656;SDS011;65576;47.714;9.414;2023-11-19T12:57:44;0.30;;;0.30;;
76656;SDS011;65576;47.714;9.414;2023-11-19T13:00:18;0.47;;;0.30;;
76656;SDS011;65576;47.714;9.414;2023-11-19T13:02:47;0.60;;;0.50;;
76656;SDS011;65576;47.714;9.414;2023-11-19T13:05:21;0.30;;;0.30;;
76656;SDS011;65576;47.714;9.414;2023-11-19T13:07:51;0.30;;;0.20;;
76656;SDS011;65576;47.714;9.414;2023-11-19T13:10:23;0.30;;;0.30;;
76656;SDS011;65576;47.714;9.414;2023-11-19T13:12:59;0.43;;;0.22;;
76656;SDS011;65576;47.714;9.414;2023-11-19T13:15:28;0.43;;;0.40;;
76656;SDS011;65576;47.714;9.414;2023-11-19T13:17:54;0.40;;;0.40;;
76656;SDS011;65576;47.714;9.414;2023-11-19T13:20:19;0.63;;;0.47;;
76656;SDS011;65576;47.714;9.414;2023-11-19T13:25:21;0.43;;;0.35;;
76656;SDS011;65576;47.714;9.414;2023-11-19T13:27:46;0.40;;;0.30;;
76656;SDS011;65576;47.714;9.414;2023-11-19T13:30:12;0.65;;;0.47;;
76656;SDS011;65576;47.714;9.414;2023-11-19T13:32:40;0.57;;;0.57;;
76656;SDS011;65576;47.714;9.414;2023-11-19T13:35:05;2.22;;;0.65;;
76656;SDS011;65576;47.714;9.414;2023-11-19T13:37:33;4.13;;;0.47;;
76656;SDS011;65576;47.714;9.414;2023-11-19T13:39:59;1.00;;;0.60;;
76656;SDS011;65576;47.714;9.414;2023-11-19T13:42:24;0.47;;;0.47;;
76656;SDS011;65576;47.714;9.414;2023-11-19T13:44:49;0.80;;;0.50;;
76656;SDS011;65576;47.714;9.414;2023-11-19T13:47:15;0.50;;;0.45;;
76656;SDS011;65576;47.714;9.414;2023-11-19T13:49:40;0.43;;;0.43;;
76656;SDS011;65576;47.714;9.414;2023-11-19T13:52:05;0.60;;;0.60;;
76656;SDS011;65576;47.714;9.414;2023-11-19T13:54:31;1.20;;;0.30;;
76656;SDS011;65576;47.714;9.414;2023-11-19T13:56:56;0.98;;;0.70;;
76656;SDS011;65576;47.714;9.414;2023-11-19T13:59:23;0.73;;;0.70;;
76656;SDS011;65576;47.714;9.414;2023-11-19T14:01:48;0.50;;;0.50;;
76656;SDS011;65576;47.714;9.414;2023-11-19T14:04:14;1.77;;;1.23;;
76656;SDS011;65576;47.714;9.414;2023-11-19T14:06:39;3.95;;;2.03;;
76656;SDS011;65576;47.714;9.414;2023-11-19T14:09:06;6.65;;;3.22;;
76656;SDS011;65576;47.714;9.414;2023-11-19T14:11:32;1.20;;;1.10;;
76656;SDS011;65576;47.714;9.414;2023-11-19T14:13:57;0.98;;;0.90;;
76656;SDS011;65576;47.714;9.414;2023-11-19T14:16:26;2.55;;;1.00;;
76656;SDS011;65576;47.714;9.414;2023-11-19T14:18:51;0.82;;;0.80;;
76656;SDS011;65576;47.714;9.414;2023-11-19T14:21:17;0.57;;;0.57;;
76656;SDS011;65576;47.714;9.414;2023-11-19T14:23:42;1.02;;;0.88;;
76656;SDS011;65576;47.714;9.414;2023-11-19T14:26:07;0.38;;;0.38;;
76656;SDS011;65576;47.714;9.414;2023-11-19T14:28:33;0.70;;;0.60;;
76656;SDS011;65576;47.714;9.414;2023-11-19T14:30:58;0.77;;;0.73;;
76656;SDS011;65576;47.714;9.414;2023-11-19T14:33:24;2.17;;;0.95;;
76656;SDS011;65576;47.714;9.414;2023-11-19T14:35:49;0.40;;;0.40;;
76656;SDS011;65576;47.714;9.414;2023-11-19T14:38:15;3.17;;;0.57;;
76656;SDS011;65576;47.714;9.414;2023-11-19T14:40:40;0.55;;;0.55;;
76656;SDS011;65576;47.714;9.414;2023-11-19T14:43:07;0.70;;;0.70;;
76656;SDS011;65576;47.714;9.414;2023-11-19T14:45:35;1.60;;;0.68;;
76656;SDS011;65576;47.714;9.414;2023-11-19T14:48:00;0.50;;;0.50;;
76656;SDS011;65576;47.714;9.414;2023-11-19T14:50:25;0.85;;;0.68;;
76656;SDS011;65576;47.714;9.414;2023-11-19T14:52:51;0.70;;;0.57;;
76656;SDS011;65576;47.714;9.414;2023-11-19T14:55:16;1.15;;;0.88;;
76656;SDS011;65576;47.714;9.414;2023-11-19T14:57:41;0.88;;;0.65;;
76656;SDS011;65576;47.714;9.414;2023-11-19T15:00:09;0.40;;;0.40;;
76656;SDS011;65576;47.714;9.414;2023-11-19T15:02:38;0.30;;;0.30;;
76656;SDS011;65576;47.714;9.414;2023-11-19T15:05:04;0.60;;;0.57;;
76656;SDS011;65576;47.714;9.414;2023-11-19T15:07:30;0.38;;;0.38;;
76656;SDS011;65576;47.714;9.414;2023-11-19T15:09:55;0.40;;;0.40;;